createdAt,value
2018-11-13T00:01:13.277Z,12.80
2018-11-13T00:03:41.522Z,12.80
2018-11-13T00:06:09.715Z,12.80
2018-11-13T00:08:37.915Z,12.90
2018-11-13T00:11:06.188Z,12.90
2018-11-13T00:13:34.476Z,12.90
2018-11-13T00:16:02.719Z,13.00
2018-11-13T00:18:30.937Z,13.00
2018-11-13T00:20:59.143Z,13.00
2018-11-13T00:23:27.377Z,13.00
2018-11-13T00:25:55.573Z,13.00
2018-11-13T00:28:23.872Z,13.00
2018-11-13T00:30:52.056Z,13.00
2018-11-13T00:33:20.226Z,13.00
2018-11-13T00:35:48.422Z,13.00
2018-11-13T00:38:16.727Z,13.00
2018-11-13T00:40:45.052Z,13.00
2018-11-13T00:43:13.337Z,13.00
2018-11-13T00:45:41.629Z,13.00
2018-11-13T00:48:09.782Z,13.00
2018-11-13T00:50:38.038Z,13.00
2018-11-13T00:53:06.314Z,12.90
2018-11-13T00:55:34.561Z,13.00
2018-11-13T00:58:02.784Z,13.00
2018-11-13T01:00:31.000Z,12.90
2018-11-13T01:02:59.225Z,12.90
2018-11-13T01:05:27.655Z,12.80
2018-11-13T01:07:55.725Z,12.80
2018-11-13T01:10:23.995Z,12.80
2018-11-13T01:12:52.236Z,12.80
2018-11-13T01:15:20.864Z,12.80
2018-11-13T01:17:49.427Z,12.80
2018-11-13T01:20:18.336Z,12.80
2018-11-13T01:22:46.537Z,12.90
2018-11-13T01:25:15.707Z,12.90
2018-11-13T01:27:44.452Z,12.90
2018-11-13T01:30:13.690Z,12.90
2018-11-13T01:32:42.601Z,12.90
2018-11-13T01:35:12.280Z,12.90
2018-11-13T01:37:40.550Z,12.90
2018-11-13T01:40:12.116Z,12.90
2018-11-13T01:42:41.003Z,12.80
2018-11-13T01:45:11.470Z,12.80
2018-11-13T01:47:39.679Z,12.80
2018-11-13T01:50:08.808Z,12.80
2018-11-13T01:52:37.148Z,12.80
2018-11-13T01:55:07.251Z,12.80
2018-11-13T01:57:35.607Z,12.80
2018-11-13T02:00:03.944Z,12.70
2018-11-13T02:02:32.319Z,12.70
2018-11-13T02:05:00.593Z,12.70
2018-11-13T02:07:28.824Z,12.80
2018-11-13T02:09:57.194Z,12.70
2018-11-13T02:12:25.403Z,12.70
2018-11-13T02:14:53.691Z,12.70
2018-11-13T02:17:22.075Z,12.70
2018-11-13T02:19:50.300Z,12.70
2018-11-13T02:22:18.599Z,12.70
2018-11-13T02:24:46.837Z,12.70
2018-11-13T02:27:15.040Z,12.70
2018-11-13T02:29:43.320Z,12.70
2018-11-13T02:32:11.621Z,12.70
2018-11-13T02:34:39.824Z,12.70
2018-11-13T02:37:08.060Z,12.70
2018-11-13T02:39:36.346Z,12.70
2018-11-13T02:42:04.713Z,12.70
2018-11-13T02:44:32.915Z,12.60
2018-11-13T02:47:01.151Z,12.60
2018-11-13T02:49:29.490Z,12.60
2018-11-13T02:51:57.825Z,12.60
2018-11-13T02:54:26.021Z,12.60
2018-11-13T02:56:54.251Z,12.60
2018-11-13T02:59:22.672Z,12.60
2018-11-13T03:01:50.893Z,12.60
2018-11-13T03:04:19.574Z,12.50
2018-11-13T03:06:47.796Z,12.50
2018-11-13T03:09:16.031Z,12.50
2018-11-13T03:11:44.233Z,12.40
2018-11-13T03:14:12.461Z,12.40
2018-11-13T03:16:40.758Z,12.40
2018-11-13T03:19:08.963Z,12.30
2018-11-13T03:21:37.187Z,12.30
2018-11-13T03:24:05.593Z,12.30
2018-11-13T03:26:33.960Z,12.40
2018-11-13T03:29:02.199Z,12.40
2018-11-13T03:31:30.578Z,12.40
2018-11-13T03:33:58.716Z,12.30
2018-11-13T03:36:26.950Z,12.30
2018-11-13T03:38:55.172Z,12.30
2018-11-13T03:41:23.446Z,12.30
2018-11-13T03:43:51.705Z,12.30
2018-11-13T03:46:19.873Z,12.20
2018-11-13T03:48:48.008Z,12.20
2018-11-13T03:51:16.152Z,12.20
2018-11-13T03:53:44.322Z,12.30
2018-11-13T03:56:12.495Z,12.30
2018-11-13T03:58:40.773Z,12.30
2018-11-13T04:01:09.275Z,12.30
2018-11-13T04:03:37.492Z,12.30
2018-11-13T04:06:05.669Z,12.40
2018-11-13T04:08:33.925Z,12.30
2018-11-13T04:11:02.108Z,12.30
2018-11-13T04:13:30.320Z,12.30
2018-11-13T04:15:58.539Z,12.30
2018-11-13T04:18:26.725Z,12.30
2018-11-13T04:20:55.109Z,12.20
2018-11-13T04:23:23.270Z,12.20
2018-11-13T04:25:51.653Z,12.10
2018-11-13T04:28:19.918Z,12.10
2018-11-13T04:30:48.162Z,12.00
2018-11-13T04:33:16.611Z,12.00
2018-11-13T04:35:44.971Z,11.90
2018-11-13T04:38:13.223Z,11.90
2018-11-13T04:40:41.447Z,11.90
2018-11-13T04:43:09.696Z,11.90
2018-11-13T04:45:38.099Z,11.90
2018-11-13T04:48:06.315Z,11.90
2018-11-13T04:50:34.498Z,11.90
2018-11-13T04:53:02.904Z,11.90
2018-11-13T04:55:31.068Z,11.90
2018-11-13T04:57:59.206Z,11.90
2018-11-13T05:00:27.368Z,11.90
2018-11-13T05:02:55.677Z,11.80
2018-11-13T05:05:23.981Z,11.80
2018-11-13T05:07:54.366Z,11.70
2018-11-13T05:10:22.800Z,11.70
2018-11-13T05:12:51.022Z,11.80
2018-11-13T05:15:19.208Z,11.80
2018-11-13T05:17:47.710Z,11.80
2018-11-13T05:20:16.640Z,11.80
2018-11-13T05:22:44.798Z,11.80
2018-11-13T05:25:14.956Z,11.80
2018-11-13T05:27:43.419Z,11.80
2018-11-13T05:30:13.443Z,11.80
2018-11-13T05:32:41.633Z,11.70
2018-11-13T05:35:11.638Z,11.70
2018-11-13T05:37:40.828Z,11.70
2018-11-13T05:40:11.475Z,11.70
2018-11-13T05:42:39.752Z,11.70
2018-11-13T05:45:09.236Z,11.70
2018-11-13T05:47:37.492Z,11.70
2018-11-13T05:50:06.221Z,11.70
2018-11-13T05:52:34.517Z,11.70
2018-11-13T05:55:02.780Z,11.70
2018-11-13T05:57:30.931Z,11.60
2018-11-13T05:59:59.152Z,11.70
2018-11-13T06:02:27.398Z,11.60
2018-11-13T06:04:55.561Z,11.60
2018-11-13T06:07:23.762Z,11.60
2018-11-13T06:09:51.937Z,11.60
2018-11-13T06:12:20.109Z,11.60
2018-11-13T06:14:48.637Z,11.50
2018-11-13T06:17:18.392Z,11.50
2018-11-13T06:19:46.627Z,11.60
2018-11-13T06:22:14.919Z,11.60
2018-11-13T06:24:43.169Z,11.60
2018-11-13T06:27:11.558Z,11.60
2018-11-13T06:29:39.920Z,11.60
2018-11-13T06:32:08.412Z,11.60
2018-11-13T06:34:36.644Z,11.60
2018-11-13T06:37:07.659Z,11.60
2018-11-13T06:39:35.860Z,11.60
2018-11-13T06:42:04.044Z,11.60
2018-11-13T06:44:32.260Z,11.60
2018-11-13T06:47:00.407Z,11.60
2018-11-13T06:49:28.630Z,11.60
2018-11-13T06:51:57.274Z,11.60
2018-11-13T06:54:36.677Z,11.60
2018-11-13T06:57:04.925Z,11.60
2018-11-13T06:59:33.336Z,11.60
2018-11-13T07:02:01.489Z,11.50
2018-11-13T07:04:29.804Z,11.60
2018-11-13T07:06:58.143Z,11.60
2018-11-13T07:09:26.529Z,11.50
2018-11-13T07:11:54.687Z,11.50
2018-11-13T07:14:23.168Z,11.50
2018-11-13T07:16:51.566Z,11.50
2018-11-13T07:19:19.944Z,11.50
2018-11-13T07:21:48.193Z,11.50
2018-11-13T07:24:16.400Z,11.50
2018-11-13T07:26:44.841Z,11.50
2018-11-13T07:29:13.121Z,11.50
2018-11-13T07:31:41.502Z,11.50
2018-11-13T07:34:09.772Z,11.50
2018-11-13T07:36:37.936Z,11.50
2018-11-13T07:39:08.117Z,11.50
2018-11-13T07:41:36.303Z,11.50
2018-11-13T07:44:04.512Z,11.50
2018-11-13T07:46:32.727Z,11.50
2018-11-13T07:49:00.875Z,11.50
2018-11-13T07:51:29.215Z,11.50
2018-11-13T07:53:57.524Z,11.50
2018-11-13T07:56:25.651Z,11.50
2018-11-13T07:58:53.869Z,11.50
2018-11-13T08:01:22.060Z,11.50
2018-11-13T08:03:50.418Z,11.50
2018-11-13T08:06:18.746Z,11.50
2018-11-13T08:08:46.839Z,11.50
2018-11-13T08:11:15.095Z,11.60
2018-11-13T08:13:43.296Z,11.60
2018-11-13T08:16:11.483Z,11.60
2018-11-13T08:18:39.707Z,11.60
2018-11-13T08:21:08.230Z,11.60
2018-11-13T08:23:36.283Z,11.60
2018-11-13T08:26:04.800Z,11.60
2018-11-13T08:28:36.350Z,11.60
2018-11-13T08:31:07.418Z,11.60
2018-11-13T08:33:36.587Z,11.60
2018-11-13T08:36:04.882Z,11.60
2018-11-13T08:38:33.016Z,11.70
2018-11-13T08:41:01.189Z,11.60
2018-11-13T08:43:29.475Z,11.60
2018-11-13T08:45:57.598Z,11.60
2018-11-13T08:48:25.807Z,11.60
2018-11-13T08:50:53.999Z,11.60
2018-11-13T08:53:22.106Z,11.60
2018-11-13T08:55:50.277Z,11.50
2018-11-13T08:58:18.610Z,11.50
2018-11-13T09:00:46.765Z,11.50
2018-11-13T09:03:15.101Z,11.50
2018-11-13T09:05:43.355Z,11.50
2018-11-13T09:08:11.591Z,11.50
2018-11-13T09:10:40.812Z,11.50
2018-11-13T09:13:09.033Z,11.50
2018-11-13T09:15:37.282Z,11.50
2018-11-13T09:18:06.119Z,11.50
2018-11-13T09:20:34.248Z,11.60
2018-11-13T09:23:02.438Z,11.60
2018-11-13T09:25:30.694Z,11.70
2018-11-13T09:27:58.890Z,11.70
2018-11-13T09:30:27.344Z,11.70
2018-11-13T09:32:55.451Z,11.60
2018-11-13T09:35:23.592Z,11.60
2018-11-13T09:37:51.756Z,11.50
2018-11-13T09:40:20.719Z,11.60
2018-11-13T09:42:50.319Z,11.60
2018-11-13T09:45:18.653Z,11.70
2018-11-13T09:47:46.863Z,11.70
2018-11-13T09:50:16.368Z,11.80
2018-11-13T09:52:45.789Z,11.80
2018-11-13T09:55:15.181Z,11.80
2018-11-13T09:57:43.360Z,11.70
2018-11-13T10:00:14.428Z,11.80
2018-11-13T10:02:44.736Z,11.80
2018-11-13T10:05:13.239Z,11.80
2018-11-13T10:07:40.960Z,11.90
2018-11-13T10:10:10.168Z,11.90
2018-11-13T10:12:38.386Z,11.90
2018-11-13T10:15:09.600Z,11.90
2018-11-13T10:17:38.167Z,11.90
2018-11-13T10:20:06.603Z,12.00
2018-11-13T10:22:34.919Z,12.20
2018-11-13T10:25:03.249Z,12.30
2018-11-13T10:27:31.429Z,12.30
2018-11-13T10:29:59.648Z,12.40
2018-11-13T10:32:27.796Z,12.50
2018-11-13T10:34:55.961Z,12.60
2018-11-13T10:37:24.124Z,12.80
2018-11-13T10:39:52.276Z,12.90
2018-11-13T10:42:20.449Z,12.90
2018-11-13T10:44:48.578Z,13.00
2018-11-13T10:47:16.743Z,13.10
2018-11-13T10:49:44.897Z,13.00
2018-11-13T10:52:13.144Z,13.00
2018-11-13T10:54:41.340Z,13.00
2018-11-13T10:57:09.549Z,13.10
2018-11-13T10:59:37.763Z,13.30
2018-11-13T11:02:11.449Z,13.80
2018-11-13T11:04:42.096Z,14.20
2018-11-13T11:07:10.337Z,14.10
2018-11-13T11:09:38.626Z,13.90
2018-11-13T11:12:07.080Z,13.60
2018-11-13T11:14:35.312Z,13.30
2018-11-13T11:17:03.692Z,13.00
2018-11-13T11:19:32.435Z,12.90
2018-11-13T11:22:00.693Z,12.80
2018-11-13T11:24:28.894Z,12.70
2018-11-13T11:26:57.093Z,12.70
2018-11-13T11:29:25.533Z,12.80
2018-11-13T11:31:53.719Z,12.80
2018-11-13T11:34:21.984Z,12.90
2018-11-13T11:36:50.203Z,12.90
2018-11-13T11:39:18.481Z,12.90
2018-11-13T11:41:46.660Z,12.90
2018-11-13T11:44:14.920Z,12.90
2018-11-13T11:46:43.243Z,13.00
2018-11-13T11:49:11.500Z,13.00
2018-11-13T11:51:39.781Z,13.00
2018-11-13T11:54:08.020Z,13.00
2018-11-13T11:56:36.366Z,12.80
2018-11-13T11:59:04.623Z,12.70
2018-11-13T12:01:32.955Z,12.60
2018-11-13T12:04:01.141Z,12.50
2018-11-13T12:06:29.405Z,12.40
2018-11-13T12:08:57.710Z,12.40
2018-11-13T12:11:26.045Z,12.40
2018-11-13T12:13:54.303Z,12.40
2018-11-13T12:16:22.546Z,12.40
2018-11-13T12:18:50.755Z,12.50
2018-11-13T12:21:19.028Z,12.60
2018-11-13T12:23:47.346Z,12.70
2018-11-13T12:26:15.528Z,12.80
2018-11-13T12:28:43.764Z,12.80
2018-11-13T12:31:12.010Z,12.90
2018-11-13T12:33:40.234Z,12.90
2018-11-13T12:36:08.516Z,12.80
2018-11-13T12:38:38.044Z,12.80
2018-11-13T12:41:06.458Z,12.90
2018-11-13T12:43:34.630Z,12.90
2018-11-13T12:46:02.849Z,12.90
2018-11-13T12:48:31.211Z,12.90
2018-11-13T12:51:05.585Z,12.90
2018-11-13T12:53:34.643Z,12.90
2018-11-13T12:56:02.952Z,12.90
2018-11-13T12:58:32.155Z,12.80
2018-11-13T13:01:00.774Z,12.80
2018-11-13T13:03:29.168Z,12.80
2018-11-13T13:05:57.355Z,12.80
2018-11-13T13:08:25.734Z,12.90
2018-11-13T13:10:53.921Z,12.90
2018-11-13T13:13:22.289Z,12.90
2018-11-13T13:15:50.471Z,12.90
2018-11-13T13:18:18.967Z,12.90
2018-11-13T13:20:47.300Z,12.90
2018-11-13T13:23:33.961Z,12.80
2018-11-13T13:26:03.298Z,12.90
2018-11-13T13:28:31.513Z,12.90
2018-11-13T13:30:59.667Z,12.80
2018-11-13T13:33:27.908Z,12.80
2018-11-13T13:35:57.512Z,12.80
2018-11-13T13:38:25.747Z,12.80
2018-11-13T13:40:55.366Z,12.70
2018-11-13T13:43:24.255Z,12.70
2018-11-13T13:45:52.564Z,12.70
2018-11-13T13:48:21.054Z,12.70
2018-11-13T13:50:49.287Z,12.70
2018-11-13T13:53:18.367Z,12.70
2018-11-13T13:55:47.994Z,12.70
2018-11-13T13:58:17.004Z,12.80
2018-11-13T14:00:45.255Z,12.80
2018-11-13T14:03:13.850Z,12.80
2018-11-13T14:05:42.428Z,12.80
2018-11-13T14:08:11.411Z,12.70
2018-11-13T14:10:39.864Z,12.60
2018-11-13T14:13:08.280Z,12.60
2018-11-13T14:15:36.605Z,12.60
2018-11-13T14:18:04.744Z,12.40
2018-11-13T14:20:33.477Z,12.40
2018-11-13T14:23:01.735Z,12.50
2018-11-13T14:25:29.903Z,12.40
2018-11-13T14:27:58.131Z,12.50
2018-11-13T14:30:28.620Z,12.40
2018-11-13T14:32:58.390Z,12.30
2018-11-13T14:35:26.917Z,12.30
2018-11-13T14:37:55.239Z,12.30
2018-11-13T14:40:26.007Z,12.30
2018-11-13T14:42:54.348Z,12.20
2018-11-13T14:45:23.441Z,12.20
2018-11-13T14:47:52.118Z,12.20
2018-11-13T14:50:21.753Z,12.10
2018-11-13T14:52:50.616Z,12.00
2018-11-13T14:55:21.570Z,12.00
2018-11-13T14:57:50.017Z,11.90
2018-11-13T15:00:21.088Z,12.00
2018-11-13T15:02:49.711Z,11.90
2018-11-13T15:05:19.282Z,11.90
2018-11-13T15:07:48.887Z,11.80
2018-11-13T15:10:54.189Z,11.80
2018-11-13T15:13:23.723Z,11.70
2018-11-13T15:15:52.029Z,11.80
2018-11-13T15:18:20.264Z,11.80
2018-11-13T15:20:49.152Z,11.80
2018-11-13T15:23:17.529Z,11.70
2018-11-13T15:25:45.754Z,11.70
2018-11-13T15:28:14.131Z,11.60
2018-11-13T15:30:43.925Z,11.50
2018-11-13T15:33:16.629Z,11.50
2018-11-13T15:35:44.972Z,11.50
2018-11-13T15:38:13.199Z,11.60
2018-11-13T15:40:41.409Z,11.30
2018-11-13T15:43:09.767Z,11.20
2018-11-13T15:45:38.048Z,11.00
2018-11-13T15:48:07.867Z,10.80
2018-11-13T15:50:36.823Z,10.70
2018-11-13T15:53:05.225Z,10.60
2018-11-13T15:55:33.696Z,10.50
2018-11-13T15:58:02.029Z,10.50
2018-11-13T16:00:31.820Z,10.40
2018-11-13T16:03:01.590Z,10.40
2018-11-13T16:05:35.731Z,10.30
2018-11-13T16:08:05.163Z,10.20
2018-11-13T16:10:33.410Z,10.20
2018-11-13T16:13:02.000Z,10.30
2018-11-13T16:15:30.603Z,10.30
2018-11-13T16:18:00.002Z,10.30
2018-11-13T16:20:29.514Z,10.40
2018-11-13T16:22:57.751Z,10.50
2018-11-13T16:25:26.583Z,10.70
2018-11-13T16:27:54.873Z,10.80
2018-11-13T16:30:25.559Z,11.00
2018-11-13T16:32:53.858Z,11.00
2018-11-13T16:35:23.193Z,11.10
2018-11-13T16:37:52.515Z,11.10
2018-11-13T16:40:22.064Z,11.10
2018-11-13T16:42:50.468Z,11.10
2018-11-13T16:45:19.904Z,11.10
2018-11-13T16:47:48.198Z,11.00
2018-11-13T16:50:18.937Z,11.00
2018-11-13T16:52:47.164Z,11.00
2018-11-13T16:55:20.726Z,10.90
2018-11-13T16:57:49.508Z,10.80
2018-11-13T17:00:18.056Z,10.70
2018-11-13T17:02:46.460Z,10.50
2018-11-13T17:05:15.812Z,10.40
2018-11-13T17:07:44.091Z,10.30
2018-11-13T17:10:14.481Z,10.20
2018-11-13T17:12:42.858Z,10.10
2018-11-13T17:15:14.327Z,10.10
2018-11-13T17:17:42.968Z,10.10
2018-11-13T17:20:12.287Z,10.20
2018-11-13T17:22:41.292Z,10.30
2018-11-13T17:25:10.352Z,10.50
2018-11-13T17:27:39.979Z,10.50
2018-11-13T17:30:10.712Z,10.50
2018-11-13T17:32:39.102Z,10.40
2018-11-13T17:35:08.342Z,10.40
2018-11-13T17:37:36.560Z,10.30
2018-11-13T17:40:07.578Z,10.30
2018-11-13T17:42:35.881Z,10.20
2018-11-13T17:45:04.774Z,10.00
2018-11-13T17:47:33.103Z,10.00
2018-11-13T17:50:01.577Z,9.90
2018-11-13T17:52:29.858Z,9.70
2018-11-13T17:54:58.093Z,9.60
2018-11-13T17:57:26.352Z,9.60
2018-11-13T17:59:54.809Z,9.40
2018-11-13T18:02:23.016Z,9.20
2018-11-13T18:04:51.188Z,9.20
2018-11-13T18:07:19.423Z,9.10
2018-11-13T18:09:47.665Z,9.00
2018-11-13T18:12:15.901Z,9.00
2018-11-13T18:14:44.210Z,8.90
2018-11-13T18:17:12.344Z,8.90
2018-11-13T18:19:40.612Z,8.90
2018-11-13T18:22:08.962Z,8.90
2018-11-13T18:24:37.149Z,8.90
2018-11-13T18:27:05.542Z,8.90
2018-11-13T18:29:33.714Z,9.00
2018-11-13T18:32:01.887Z,9.00
2018-11-13T18:34:30.116Z,9.00
2018-11-13T18:36:58.433Z,8.80
2018-11-13T18:39:26.736Z,8.70
2018-11-13T18:41:55.153Z,8.60
2018-11-13T18:44:23.444Z,8.60
2018-11-13T18:46:51.959Z,8.80
2018-11-13T18:49:20.271Z,9.00
2018-11-13T18:51:48.708Z,9.00
2018-11-13T18:54:16.949Z,9.00
2018-11-13T18:56:47.624Z,8.90
2018-11-13T18:59:15.872Z,8.80
2018-11-13T19:01:44.052Z,8.80
2018-11-13T19:04:12.312Z,8.70
2018-11-13T19:06:40.451Z,8.70
2018-11-13T19:09:10.186Z,8.50
2018-11-13T19:11:38.398Z,8.40
2018-11-13T19:14:06.783Z,8.30
2018-11-13T19:16:35.346Z,8.30
2018-11-13T19:19:03.829Z,8.30
2018-11-13T19:21:32.231Z,8.20
2018-11-13T19:24:00.813Z,8.10
2018-11-13T19:26:28.898Z,8.00
2018-11-13T19:28:57.251Z,7.90
2018-11-13T19:31:25.424Z,7.90
2018-11-13T19:33:53.689Z,7.90
2018-11-13T19:36:22.159Z,7.80
2018-11-13T19:38:52.434Z,7.90
2018-11-13T19:41:20.785Z,7.90
2018-11-13T19:43:49.240Z,7.80
2018-11-13T19:46:17.529Z,7.80
2018-11-13T19:48:45.831Z,7.80
2018-11-13T19:51:14.054Z,7.80
2018-11-13T19:53:42.291Z,7.70
2018-11-13T19:56:10.630Z,7.70
2018-11-13T19:58:38.820Z,7.80
2018-11-13T20:01:07.295Z,8.00
2018-11-13T20:03:35.449Z,8.10
2018-11-13T20:06:03.636Z,8.00
2018-11-13T20:08:31.897Z,8.00
2018-11-13T20:11:00.138Z,8.00
2018-11-13T20:13:28.327Z,8.00
2018-11-13T20:15:56.628Z,8.00
2018-11-13T20:18:24.761Z,8.00
2018-11-13T20:20:53.172Z,8.00
2018-11-13T20:23:21.330Z,8.00
2018-11-13T20:25:49.748Z,7.90
2018-11-13T20:28:18.051Z,8.00
2018-11-13T20:30:46.372Z,8.00
2018-11-13T20:33:14.494Z,7.90
2018-11-13T20:35:42.887Z,7.90
2018-11-13T20:38:11.273Z,7.90
2018-11-13T20:40:39.433Z,7.80
2018-11-13T20:43:09.547Z,7.80
2018-11-13T20:45:37.906Z,7.80
2018-11-13T20:48:06.177Z,7.80
2018-11-13T20:50:34.892Z,7.80
2018-11-13T20:53:03.164Z,7.70
2018-11-13T20:55:31.323Z,7.50
2018-11-13T20:57:59.941Z,7.30
2018-11-13T21:00:30.247Z,7.20
2018-11-13T21:02:58.680Z,7.10
2018-11-13T21:05:26.856Z,6.90
2018-11-13T21:07:55.343Z,6.80
2018-11-13T21:10:27.636Z,6.70
2018-11-13T21:12:55.777Z,6.60
2018-11-13T21:15:23.916Z,6.60
2018-11-13T21:17:52.312Z,6.50
2018-11-13T21:20:20.559Z,6.50
2018-11-13T21:22:48.862Z,6.40
2018-11-13T21:25:18.769Z,6.30
2018-11-13T21:27:46.919Z,6.30
2018-11-13T21:30:17.914Z,6.20
2018-11-13T21:32:46.847Z,6.20
2018-11-13T21:35:15.538Z,6.20
2018-11-13T21:37:45.203Z,6.10
2018-11-13T21:40:14.624Z,6.10
2018-11-13T21:42:43.692Z,6.10
2018-11-13T21:45:12.647Z,6.10
2018-11-13T21:47:41.341Z,6.20
2018-11-13T21:50:11.310Z,6.20
2018-11-13T21:52:39.648Z,6.40
2018-11-13T21:55:09.576Z,6.50
2018-11-13T21:57:37.764Z,6.60
2018-11-13T22:00:27.266Z,6.60
2018-11-13T22:02:58.092Z,6.60
2018-11-13T22:05:27.496Z,6.60
2018-11-13T22:07:55.768Z,6.50
2018-11-13T22:10:24.020Z,6.50
2018-11-13T22:12:52.183Z,6.40
2018-11-13T22:15:21.692Z,6.30
2018-11-13T22:17:49.790Z,6.20
2018-11-13T22:20:18.602Z,6.10
2018-11-13T22:22:47.600Z,6.00
2018-11-13T22:25:18.871Z,5.90
2018-11-13T22:27:48.413Z,5.90
2018-11-13T22:30:17.655Z,5.90
2018-11-13T22:32:46.455Z,6.00
2018-11-13T22:35:15.134Z,6.00
2018-11-13T22:37:43.464Z,5.90
2018-11-13T22:40:13.748Z,5.90
2018-11-13T22:42:41.947Z,5.80
2018-11-13T22:45:12.995Z,5.80
2018-11-13T22:47:41.308Z,5.70
2018-11-13T22:50:11.413Z,5.60
2018-11-13T22:52:40.015Z,5.60
2018-11-13T22:55:09.367Z,5.70
2018-11-13T22:57:37.947Z,5.70
2018-11-13T23:00:17.741Z,5.60
2018-11-13T23:02:46.073Z,5.60
2018-11-13T23:05:14.215Z,5.50
2018-11-13T23:07:42.414Z,5.50
2018-11-13T23:10:12.155Z,5.40
2018-11-13T23:12:41.047Z,5.40
2018-11-13T23:15:11.638Z,5.50
2018-11-13T23:17:40.377Z,5.50
2018-11-13T23:20:10.687Z,5.40
2018-11-13T23:22:38.955Z,5.30
2018-11-13T23:25:07.986Z,5.20
2018-11-13T23:27:36.247Z,5.10
2018-11-13T23:30:06.209Z,5.10
2018-11-13T23:32:34.852Z,5.00
2018-11-13T23:35:03.182Z,5.00
2018-11-13T23:37:31.515Z,5.00
2018-11-13T23:39:59.758Z,5.00
2018-11-13T23:42:27.973Z,5.00
2018-11-13T23:44:56.431Z,4.90
2018-11-13T23:47:24.624Z,4.80
2018-11-13T23:49:52.919Z,4.80
2018-11-13T23:52:21.085Z,4.90
2018-11-13T23:54:49.411Z,4.80
2018-11-13T23:57:17.847Z,4.70
2018-11-13T23:59:46.059Z,4.70
